Terminal Aerodrome Forecast
Issued by NWS Jacksonville, FL

Home | Current Version | Previous Version | Text Only | Print | Product List | Glossary On
Versions: 1 2 3 4 5 6 7 8 9 10 11 12 13 14 15 16
000
FTUS42 KJAX 152300 RRA
TAFSSI
TAF
KSSI 152341Z 1600/1624 14009KT P6SM SCT050 BKN120
      TEMPO 1600/1602 5SM -SHRA BKN025
     FM160300 24005KT P6SM FEW020 SCT100 BKN250
     FM161800 20008KT P6SM VCTS SCT030CB BKN150=

USA.gov is the U.S. government's official web portal to all federal, state and local government web resources and services.